createdAt,value
2022-12-16T00:02:30.539Z,22.93
2022-12-16T00:05:19.835Z,21.93
2022-12-16T00:08:08.003Z,19.77
2022-12-16T00:10:59.469Z,16.90
2022-12-16T00:13:45.917Z,21.80
2022-12-16T00:16:32.416Z,20.43
2022-12-16T00:19:18.864Z,20.23
2022-12-16T00:22:05.476Z,18.07
2022-12-16T00:24:53.291Z,19.57
2022-12-16T00:27:39.726Z,17.53
2022-12-16T00:30:26.367Z,24.87
2022-12-16T00:33:13.480Z,19.37
2022-12-16T00:36:00.387Z,21.73
2022-12-16T00:38:46.763Z,21.87
2022-12-16T00:41:34.908Z,19.30
2022-12-16T00:44:21.736Z,15.03
2022-12-16T00:47:08.398Z,20.80
2022-12-16T00:49:55.258Z,15.20
2022-12-16T00:52:42.128Z,13.33
2022-12-16T00:55:28.396Z,12.87
2022-12-16T00:58:16.911Z,20.17
2022-12-16T01:01:06.257Z,15.97
2022-12-16T01:03:52.998Z,20.23
2022-12-16T01:06:40.561Z,16.23
2022-12-16T01:09:27.264Z,21.27
2022-12-16T01:12:14.136Z,18.70
2022-12-16T01:15:02.958Z,16.10
2022-12-16T01:17:49.533Z,19.63
2022-12-16T01:20:36.269Z,20.10
2022-12-16T01:23:23.450Z,17.33
2022-12-16T01:26:16.707Z,20.20
2022-12-16T01:29:03.418Z,15.63
2022-12-16T01:31:51.291Z,16.03
2022-12-16T01:34:38.691Z,22.00
2022-12-16T01:37:25.805Z,18.67
2022-12-16T01:40:21.269Z,14.50
2022-12-16T01:43:13.157Z,11.50
2022-12-16T01:46:06.154Z,15.70
2022-12-16T01:49:00.583Z,10.93
2022-12-16T01:51:55.259Z,16.90
2022-12-16T01:54:50.175Z,16.17
2022-12-16T01:57:42.916Z,14.07
2022-12-16T02:00:29.714Z,16.27
2022-12-16T02:03:17.264Z,15.93
2022-12-16T02:06:07.272Z,19.10
2022-12-16T02:08:59.065Z,16.37
2022-12-16T02:12:15.984Z,12.83
2022-12-16T02:15:20.615Z,14.77
2022-12-16T02:18:24.539Z,17.00
2022-12-16T02:21:53.740Z,13.27
2022-12-16T02:25:34.806Z,17.80
2022-12-16T02:28:50.960Z,17.30
2022-12-16T02:31:53.892Z,15.73
2022-12-16T02:34:53.036Z,13.00
2022-12-16T02:37:53.880Z,15.60
2022-12-16T02:40:46.695Z,18.13
2022-12-16T02:43:54.354Z,17.57
2022-12-16T02:46:53.776Z,10.20
2022-12-16T02:49:53.618Z,14.27
2022-12-16T02:52:40.463Z,12.73
2022-12-16T02:55:46.143Z,21.20
2022-12-16T02:58:40.145Z,16.37
2022-12-16T03:01:37.016Z,15.93
2022-12-16T03:04:35.896Z,18.63
2022-12-16T03:07:26.899Z,19.50
2022-12-16T03:10:20.528Z,21.03
2022-12-16T03:13:11.527Z,18.73
2022-12-16T03:16:02.434Z,10.80
2022-12-16T03:18:55.694Z,17.83
2022-12-16T03:21:56.836Z,19.77
2022-12-16T03:24:44.056Z,16.67
2022-12-16T03:27:38.616Z,20.40
2022-12-16T03:30:31.378Z,11.53
2022-12-16T03:33:27.506Z,18.97
2022-12-16T03:36:22.363Z,21.33
2022-12-16T03:39:11.870Z,18.53
2022-12-16T03:41:59.906Z,15.87
2022-12-16T03:44:48.345Z,15.30
2022-12-16T03:47:35.132Z,24.27
2022-12-16T03:50:29.496Z,19.40
2022-12-16T03:53:15.964Z,15.63
2022-12-16T03:56:04.052Z,13.90
2022-12-16T03:58:50.488Z,13.93
2022-12-16T04:01:37.540Z,13.83
2022-12-16T04:04:25.133Z,14.50
2022-12-16T04:07:24.696Z,14.20
2022-12-16T04:10:12.211Z,16.03
2022-12-16T04:13:18.034Z,15.83
2022-12-16T04:16:22.825Z,16.93
2022-12-16T04:19:38.644Z,19.60
2022-12-16T04:22:47.048Z,16.17
2022-12-16T04:25:37.972Z,17.77
2022-12-16T04:28:26.098Z,16.77
2022-12-16T04:31:13.159Z,15.73
2022-12-16T04:34:17.845Z,17.03
2022-12-16T04:37:27.318Z,13.00
2022-12-16T04:40:32.176Z,19.97
2022-12-16T04:43:36.736Z,24.07
2022-12-16T04:46:42.593Z,14.40
2022-12-16T04:49:47.001Z,14.73
2022-12-16T04:52:51.567Z,11.87
2022-12-16T04:56:02.144Z,20.07
2022-12-16T04:59:07.875Z,12.87
2022-12-16T05:02:15.783Z,18.60
2022-12-16T05:05:19.603Z,22.40
2022-12-16T05:08:24.301Z,16.57
2022-12-16T05:11:28.374Z,14.70
2022-12-16T05:14:32.839Z,10.93
2022-12-16T05:17:39.502Z,13.67
2022-12-16T05:20:43.879Z,16.23
2022-12-16T05:23:56.409Z,16.80
2022-12-16T05:27:00.970Z,16.87
2022-12-16T05:30:05.227Z,13.23
2022-12-16T05:33:10.643Z,15.37
2022-12-16T05:36:14.790Z,17.27
2022-12-16T05:39:19.014Z,17.50
2022-12-16T05:42:23.880Z,16.13
2022-12-16T05:45:28.300Z,14.30
2022-12-16T05:48:34.295Z,13.13
2022-12-16T05:51:38.501Z,9.30
2022-12-16T05:54:42.928Z,15.93
2022-12-16T05:57:47.169Z,14.33
2022-12-16T06:00:51.624Z,17.30
2022-12-16T06:03:57.488Z,15.90
2022-12-16T06:07:04.258Z,10.93
2022-12-16T06:10:08.622Z,14.40
2022-12-16T06:13:12.864Z,12.53
2022-12-16T06:16:17.039Z,11.87
2022-12-16T06:19:23.139Z,17.60
2022-12-16T06:22:27.473Z,12.67
2022-12-16T06:25:32.074Z,12.17
2022-12-16T06:28:36.348Z,20.23
2022-12-16T06:31:40.760Z,13.00
2022-12-16T06:34:46.380Z,13.43
2022-12-16T06:37:50.391Z,10.77
2022-12-16T06:40:55.060Z,9.40
2022-12-16T06:43:59.467Z,19.33
2022-12-16T06:47:04.042Z,16.20
2022-12-16T06:50:10.341Z,13.80
2022-12-16T06:53:14.965Z,15.03
2022-12-16T06:56:19.716Z,20.03
2022-12-16T06:59:24.368Z,11.27
2022-12-16T07:02:30.456Z,15.50
2022-12-16T07:05:36.253Z,17.87
2022-12-16T07:08:40.807Z,15.00
2022-12-16T07:11:45.547Z,17.03
2022-12-16T07:14:50.218Z,10.93
2022-12-16T07:17:54.943Z,21.53
2022-12-16T07:21:00.783Z,12.97
2022-12-16T07:24:05.598Z,19.80
2022-12-16T07:27:10.292Z,11.20
2022-12-16T07:30:14.916Z,12.27
2022-12-16T07:33:19.699Z,10.23
2022-12-16T07:36:26.301Z,19.57
2022-12-16T07:39:30.877Z,17.20
2022-12-16T07:42:34.502Z,12.83
2022-12-16T07:45:44.797Z,17.50
2022-12-16T07:48:49.886Z,11.50
2022-12-16T07:51:56.752Z,16.03
2022-12-16T07:55:01.251Z,16.07
2022-12-16T07:58:09.035Z,14.77
2022-12-16T08:01:13.181Z,14.67
2022-12-16T08:04:17.391Z,10.87
2022-12-16T08:07:23.275Z,15.73
2022-12-16T08:10:28.082Z,12.13
2022-12-16T08:13:32.395Z,14.23
2022-12-16T08:16:36.517Z,14.33
2022-12-16T08:19:41.006Z,13.30
2022-12-16T08:22:47.115Z,12.80
2022-12-16T08:25:51.768Z,15.67
2022-12-16T08:29:20.307Z,15.13
2022-12-16T08:32:24.360Z,17.60
2022-12-16T08:35:28.630Z,16.20
2022-12-16T08:38:34.370Z,13.83
2022-12-16T08:41:41.228Z,17.43
2022-12-16T08:44:47.915Z,19.43
2022-12-16T08:47:52.303Z,11.10
2022-12-16T08:50:56.953Z,18.53
2022-12-16T08:54:02.940Z,16.90
2022-12-16T08:57:07.548Z,16.47
2022-12-16T09:00:12.028Z,16.80
2022-12-16T09:03:17.432Z,13.77
2022-12-16T09:06:22.357Z,18.33
2022-12-16T09:09:28.888Z,20.67
2022-12-16T09:12:33.647Z,14.70
2022-12-16T09:15:38.404Z,21.80
2022-12-16T09:18:42.810Z,18.70
2022-12-16T09:21:47.535Z,19.83
2022-12-16T09:24:52.630Z,20.00
2022-12-16T09:27:57.179Z,13.07
2022-12-16T09:31:01.477Z,20.03
2022-12-16T09:34:05.789Z,20.57
2022-12-16T09:37:21.590Z,22.37
2022-12-16T09:40:33.125Z,13.27
2022-12-16T09:43:59.243Z,18.47
2022-12-16T09:47:16.057Z,17.00
2022-12-16T09:50:21.200Z,22.03
2022-12-16T09:53:32.057Z,18.47
2022-12-16T09:56:46.964Z,16.17
2022-12-16T09:59:59.749Z,17.50
2022-12-16T10:03:08.853Z,17.67
2022-12-16T10:06:20.844Z,22.10
2022-12-16T10:09:39.680Z,19.40
2022-12-16T10:12:58.543Z,21.87
2022-12-16T10:16:16.323Z,16.73
2022-12-16T10:19:36.114Z,22.30
2022-12-16T10:22:52.647Z,21.77
2022-12-16T10:26:07.968Z,24.73
2022-12-16T10:29:23.799Z,25.07
2022-12-16T10:32:37.544Z,22.90
2022-12-16T10:35:46.485Z,21.80
2022-12-16T10:38:58.345Z,27.37
2022-12-16T10:42:08.890Z,27.57
2022-12-16T10:45:20.203Z,21.10
2022-12-16T10:48:24.831Z,21.10
2022-12-16T10:51:29.526Z,23.50
2022-12-16T10:54:53.566Z,24.53
2022-12-16T10:58:14.705Z,28.70
2022-12-16T11:01:20.402Z,22.03
2022-12-16T11:04:47.877Z,23.40
2022-12-16T11:07:57.089Z,23.90
2022-12-16T11:11:02.771Z,23.27
2022-12-16T11:14:06.875Z,22.43
2022-12-16T11:17:37.136Z,24.33
2022-12-16T11:20:44.130Z,20.00
2022-12-16T11:23:48.875Z,22.47
2022-12-16T11:26:53.529Z,21.23
2022-12-16T11:30:13.531Z,26.33
2022-12-16T11:33:28.969Z,23.27
2022-12-16T11:36:40.525Z,19.13
2022-12-16T11:39:49.068Z,22.83
2022-12-16T11:43:15.409Z,22.33
2022-12-16T11:46:29.117Z,20.47
2022-12-16T11:49:45.784Z,20.87
2022-12-16T11:52:51.554Z,20.27
2022-12-16T11:56:08.972Z,23.30
2022-12-16T11:59:24.386Z,26.27
2022-12-16T12:02:39.871Z,22.00
2022-12-16T12:05:52.696Z,23.07
2022-12-16T12:09:06.869Z,21.97
2022-12-16T12:12:26.195Z,27.50
2022-12-16T12:15:42.512Z,27.47
2022-12-16T12:18:59.291Z,23.77
2022-12-16T12:22:26.025Z,25.80
2022-12-16T12:25:42.805Z,26.43
2022-12-16T12:29:01.693Z,26.30
2022-12-16T12:32:21.128Z,28.00
2022-12-16T12:35:45.983Z,26.90
2022-12-16T12:39:05.917Z,23.30
2022-12-16T12:42:35.854Z,30.77
2022-12-16T12:46:05.224Z,22.13
2022-12-16T12:49:21.068Z,26.43
2022-12-16T12:52:39.350Z,27.87
2022-12-16T12:55:57.657Z,26.37
2022-12-16T12:59:04.577Z,26.57
2022-12-16T13:02:11.680Z,24.63
2022-12-16T13:05:22.521Z,31.80
2022-12-16T13:09:02.762Z,23.83
2022-12-16T13:12:45.196Z,22.70
2022-12-16T13:15:54.768Z,27.53
2022-12-16T13:18:59.326Z,25.10
2022-12-16T13:22:07.041Z,25.73
2022-12-16T13:25:12.200Z,25.07
2022-12-16T13:28:18.459Z,29.43
2022-12-16T13:31:25.917Z,23.23
2022-12-16T13:34:46.257Z,22.30
2022-12-16T13:37:50.977Z,26.47
2022-12-16T13:41:12.255Z,20.97
2022-12-16T13:44:18.845Z,24.37
2022-12-16T13:47:52.206Z,26.97
2022-12-16T13:51:00.764Z,21.60
2022-12-16T13:54:11.057Z,19.10
2022-12-16T13:57:21.936Z,23.23
2022-12-16T14:00:38.788Z,22.97
2022-12-16T14:03:58.381Z,31.33
2022-12-16T14:07:03.820Z,21.77
2022-12-16T14:10:08.488Z,27.57
2022-12-16T14:13:23.079Z,28.03
2022-12-16T14:16:40.546Z,25.53
2022-12-16T14:19:55.136Z,21.80
2022-12-16T14:23:17.908Z,25.97
2022-12-16T14:26:33.764Z,23.80
2022-12-16T14:29:58.037Z,28.20
2022-12-16T14:33:03.868Z,24.53
2022-12-16T14:36:08.700Z,19.43
2022-12-16T14:39:13.369Z,30.33
2022-12-16T14:42:18.049Z,23.90
2022-12-16T14:45:23.520Z,27.47
2022-12-16T14:48:49.450Z,23.70
2022-12-16T14:51:56.388Z,25.97
2022-12-16T14:55:02.722Z,23.17
2022-12-16T14:58:22.394Z,22.50
2022-12-16T15:01:35.880Z,20.03
2022-12-16T15:04:41.902Z,19.30
2022-12-16T15:07:54.720Z,21.33
2022-12-16T15:11:01.201Z,18.90
2022-12-16T15:14:12.843Z,22.60
2022-12-16T15:17:17.453Z,22.87
2022-12-16T15:20:25.751Z,22.10
2022-12-16T15:23:40.116Z,19.50
2022-12-16T15:26:47.172Z,20.73
2022-12-16T15:29:56.959Z,21.47
2022-12-16T15:33:01.437Z,18.77
2022-12-16T15:36:07.369Z,18.60
2022-12-16T15:39:12.159Z,20.20
2022-12-16T15:42:22.031Z,24.60
2022-12-16T15:45:38.562Z,14.63
2022-12-16T15:48:49.533Z,25.57
2022-12-16T15:52:06.043Z,18.67
2022-12-16T15:55:12.576Z,18.57
2022-12-16T15:58:18.384Z,20.00
2022-12-16T16:01:24.711Z,25.47
2022-12-16T16:04:40.329Z,17.57
2022-12-16T16:07:46.358Z,20.93
2022-12-16T16:10:50.928Z,25.80
2022-12-16T16:13:59.351Z,21.40
2022-12-16T16:17:09.217Z,24.30
2022-12-16T16:20:13.535Z,24.90
2022-12-16T16:23:19.482Z,19.87
2022-12-16T16:26:24.220Z,24.60
2022-12-16T16:29:31.619Z,20.63
2022-12-16T16:32:36.209Z,28.73
2022-12-16T16:35:40.755Z,22.63
2022-12-16T16:38:46.657Z,23.73
2022-12-16T16:41:51.103Z,22.53
2022-12-16T16:44:55.730Z,19.07
2022-12-16T16:48:00.291Z,26.87
2022-12-16T16:51:04.918Z,17.57
2022-12-16T16:54:10.653Z,26.00
2022-12-16T16:57:15.387Z,26.50
2022-12-16T17:00:19.820Z,23.83
2022-12-16T17:03:24.720Z,26.23
2022-12-16T17:06:29.089Z,27.77
2022-12-16T17:09:35.071Z,21.40
2022-12-16T17:12:42.973Z,21.27
2022-12-16T17:15:52.779Z,28.20
2022-12-16T17:18:58.398Z,18.30
2022-12-16T17:22:02.859Z,21.53
2022-12-16T17:25:08.531Z,22.87
2022-12-16T17:28:13.072Z,15.90
2022-12-16T17:31:17.803Z,17.37
2022-12-16T17:34:22.308Z,16.00
2022-12-16T17:37:26.652Z,20.13
2022-12-16T17:40:32.773Z,23.43
2022-12-16T17:43:37.554Z,16.87
2022-12-16T17:46:43.411Z,27.00
2022-12-16T17:49:59.224Z,18.37
2022-12-16T17:53:03.495Z,19.77
2022-12-16T17:56:09.303Z,19.63
2022-12-16T17:59:13.748Z,20.63
2022-12-16T18:02:18.191Z,19.03
2022-12-16T18:05:23.214Z,21.60
2022-12-16T18:08:27.183Z,26.70
2022-12-16T18:11:38.404Z,26.17
2022-12-16T18:14:43.212Z,23.80
2022-12-16T18:17:49.355Z,23.07
2022-12-16T18:20:56.803Z,21.20
2022-12-16T18:24:01.515Z,21.53
2022-12-16T18:27:06.903Z,19.27
2022-12-16T18:30:16.471Z,23.40
2022-12-16T18:33:21.086Z,24.87
2022-12-16T18:36:25.996Z,18.67
2022-12-16T18:39:30.128Z,22.80
2022-12-16T18:42:36.320Z,24.50
2022-12-16T18:45:40.827Z,18.77
2022-12-16T18:48:45.221Z,25.30
2022-12-16T18:51:49.490Z,19.03
2022-12-16T18:54:53.949Z,26.77
2022-12-16T18:58:00.137Z,23.70
2022-12-16T19:01:04.919Z,22.37
2022-12-16T19:04:10.223Z,25.07
2022-12-16T19:07:14.452Z,17.73
2022-12-16T19:10:19.098Z,19.13
2022-12-16T19:13:24.828Z,24.13
2022-12-16T19:16:29.823Z,21.37
2022-12-16T19:19:33.988Z,25.87
2022-12-16T19:22:38.937Z,20.63
2022-12-16T19:25:43.253Z,20.53
2022-12-16T19:28:48.968Z,21.87
2022-12-16T19:32:08.125Z,36.23
2022-12-16T19:35:13.354Z,27.20
2022-12-16T19:38:17.999Z,24.40
2022-12-16T19:41:23.060Z,25.87
2022-12-16T19:44:29.162Z,17.33
2022-12-16T19:47:48.066Z,26.47
2022-12-16T19:50:48.769Z,21.30
2022-12-16T19:53:53.474Z,25.43
2022-12-16T19:57:00.837Z,26.87
2022-12-16T20:00:06.877Z,29.17
2022-12-16T20:03:11.426Z,22.83
2022-12-16T20:06:19.703Z,26.97
2022-12-16T20:09:23.873Z,34.40
2022-12-16T20:12:28.766Z,25.60
2022-12-16T20:15:34.668Z,23.23
2022-12-16T20:18:39.439Z,23.60
2022-12-16T20:21:47.717Z,32.77
2022-12-16T20:28:23.238Z,25.37
2022-12-16T20:31:30.874Z,23.43
2022-12-16T20:34:35.652Z,32.17
2022-12-16T20:37:40.545Z,31.87
2022-12-16T20:40:48.182Z,31.13
2022-12-16T20:43:52.781Z,35.93
2022-12-16T20:47:02.410Z,31.97
2022-12-16T20:50:06.842Z,38.13
2022-12-16T20:53:11.229Z,30.63
2022-12-16T20:56:19.459Z,31.00
2022-12-16T20:59:24.404Z,30.53
2022-12-16T21:02:33.896Z,27.93
2022-12-16T21:05:38.449Z,33.43
2022-12-16T21:08:43.072Z,34.97
2022-12-16T21:11:47.844Z,32.00
2022-12-16T21:14:52.730Z,31.70
2022-12-16T21:18:01.664Z,26.63
2022-12-16T21:21:11.105Z,27.13
2022-12-16T21:24:15.920Z,25.07
2022-12-16T21:27:20.515Z,22.27
2022-12-16T21:30:34.880Z,21.90
2022-12-16T21:33:40.657Z,24.33
2022-12-16T21:36:45.257Z,21.67
2022-12-16T21:39:51.315Z,24.00
2022-12-16T21:42:56.751Z,25.40
2022-12-16T21:46:00.820Z,20.77
2022-12-16T21:49:06.536Z,24.93
2022-12-16T21:52:10.607Z,23.83
2022-12-16T21:55:15.151Z,19.20
2022-12-16T21:58:19.643Z,23.00
2022-12-16T22:01:24.403Z,26.40
2022-12-16T22:04:30.629Z,23.47
2022-12-16T22:07:35.289Z,21.27
2022-12-16T22:10:39.839Z,26.70
2022-12-16T22:13:43.554Z,24.93
2022-12-16T22:16:47.768Z,22.90
2022-12-16T22:19:53.417Z,18.63
2022-12-16T22:23:00.199Z,29.17
2022-12-16T22:26:04.315Z,27.57
2022-12-16T22:29:11.085Z,28.50
2022-12-16T22:32:11.715Z,25.47
2022-12-16T22:35:20.066Z,25.50
2022-12-16T22:38:24.644Z,20.27
2022-12-16T22:41:29.167Z,20.67
2022-12-16T22:44:33.394Z,20.33
2022-12-16T22:47:37.491Z,18.03
2022-12-16T22:50:43.603Z,24.73
2022-12-16T22:53:47.844Z,20.57
2022-12-16T22:56:52.055Z,23.27
2022-12-16T22:59:56.431Z,22.50
2022-12-16T23:03:03.808Z,23.57
2022-12-16T23:06:09.791Z,21.80
2022-12-16T23:09:14.536Z,20.13
2022-12-16T23:12:18.984Z,23.67
2022-12-16T23:15:30.542Z,18.43
2022-12-16T23:18:35.328Z,22.50
2022-12-16T23:21:41.272Z,23.10
2022-12-16T23:24:45.889Z,15.73
2022-12-16T23:27:50.652Z,19.03
2022-12-16T23:30:54.806Z,20.50
2022-12-16T23:34:00.803Z,21.77
2022-12-16T23:37:06.668Z,21.07
2022-12-16T23:40:11.198Z,19.70
2022-12-16T23:43:15.476Z,23.43
2022-12-16T23:46:20.246Z,23.23
2022-12-16T23:49:24.533Z,25.03
2022-12-16T23:52:30.339Z,19.70
2022-12-16T23:55:35.095Z,20.03
2022-12-16T23:58:39.650Z,24.93
